Terminal Aerodrome Forecast
Issued by NWS

Home | Current Version | Previous Version | Text Only | Print | Product List | Glossary On
Versions: 1 2 3 4 5 6 7 8 9 10 11 12 13 14 15 16
000
FTUS43 KILX 251739
TAFBMI
TAF
KBMI 251739Z 2518/2618 22017G25KT P6SM SCT025 BKN035
     FM260000 18012KT P6SM BKN250
     FM261100 19010KT 5SM -SHRA VCTS BKN020CB
     FM261500 18013KT P6SM VCTS SCT025CB BKN070=

USA.gov is the U.S. government's official web portal to all federal, state and local government web resources and services.